sensor_id;sensor_type;location;lat;lon;timestamp;pressure;altitude;pressure_sealevel;temperature;humidity
54900;BME280;40801;41.924;25.562;2023-04-16T00:01:59;99071.31;;;13.72;50.21
54900;BME280;40801;41.924;25.562;2023-04-16T00:04:24;99068.75;;;13.76;50.90
54900;BME280;40801;41.924;25.562;2023-04-16T00:06:50;99071.91;;;13.78;50.75
54900;BME280;40801;41.924;25.562;2023-04-16T00:09:15;99077.13;;;13.83;50.33
54900;BME280;40801;41.924;25.562;2023-04-16T00:11:41;99069.31;;;13.81;50.94
54900;BME280;40801;41.924;25.562;2023-04-16T00:14:06;99072.03;;;13.81;50.94
54900;BME280;40801;41.924;25.562;2023-04-16T00:16:32;99077.44;;;13.81;51.35
54900;BME280;40801;41.924;25.562;2023-04-16T00:18:57;99072.81;;;13.82;51.33
54900;BME280;40801;41.924;25.562;2023-04-16T00:21:22;99070.22;;;13.85;51.33
54900;BME280;40801;41.924;25.562;2023-04-16T00:23:48;99073.09;;;13.89;51.93
54900;BME280;40801;41.924;25.562;2023-04-16T00:26:13;99072.88;;;13.94;51.96
54900;BME280;40801;41.924;25.562;2023-04-16T00:28:39;99072.75;;;13.90;52.02
54900;BME280;40801;41.924;25.562;2023-04-16T00:31:04;99069.84;;;13.95;52.09
54900;BME280;40801;41.924;25.562;2023-04-16T00:33:29;99064.16;;;13.88;52.38
54900;BME280;40801;41.924;25.562;2023-04-16T00:35:55;99064.69;;;13.82;52.83
54900;BME280;40801;41.924;25.562;2023-04-16T00:38:20;99058.59;;;13.85;52.97
54900;BME280;40801;41.924;25.562;2023-04-16T00:40:46;99063.22;;;13.84;53.05
54900;BME280;40801;41.924;25.562;2023-04-16T00:43:20;99069.19;;;13.78;54.70
54900;BME280;40801;41.924;25.562;2023-04-16T00:45:45;99063.19;;;13.72;54.17
54900;BME280;40801;41.924;25.562;2023-04-16T00:48:11;99058.09;;;13.71;54.14
54900;BME280;40801;41.924;25.562;2023-04-16T00:50:36;99063.41;;;13.67;54.42
54900;BME280;40801;41.924;25.562;2023-04-16T00:53:02;99063.88;;;13.69;54.72
54900;BME280;40801;41.924;25.562;2023-04-16T00:55:28;99053.47;;;13.71;54.40
54900;BME280;40801;41.924;25.562;2023-04-16T00:57:53;99051.91;;;13.70;54.86
54900;BME280;40801;41.924;25.562;2023-04-16T01:00:19;99035.63;;;13.70;54.28
54900;BME280;40801;41.924;25.562;2023-04-16T01:02:45;99046.81;;;13.69;54.60
54900;BME280;40801;41.924;25.562;2023-04-16T01:05:10;99046.94;;;13.72;54.76
54900;BME280;40801;41.924;25.562;2023-04-16T01:07:36;99051.00;;;13.78;54.50
54900;BME280;40801;41.924;25.562;2023-04-16T01:10:02;99055.31;;;13.79;54.42
54900;BME280;40801;41.924;25.562;2023-04-16T01:12:28;99051.81;;;13.79;54.31
54900;BME280;40801;41.924;25.562;2023-04-16T01:14:53;99050.91;;;13.75;55.18
54900;BME280;40801;41.924;25.562;2023-04-16T01:17:19;99051.13;;;13.82;55.10
54900;BME280;40801;41.924;25.562;2023-04-16T01:19:44;99043.78;;;13.82;55.10
54900;BME280;40801;41.924;25.562;2023-04-16T01:22:10;99044.94;;;13.81;56.02
54900;BME280;40801;41.924;25.562;2023-04-16T01:24:35;99047.63;;;13.81;55.68
54900;BME280;40801;41.924;25.562;2023-04-16T01:27:00;99035.00;;;13.85;55.48
54900;BME280;40801;41.924;25.562;2023-04-16T01:29:26;99039.97;;;13.83;55.79
54900;BME280;40801;41.924;25.562;2023-04-16T01:31:51;99038.03;;;13.84;55.92
54900;BME280;40801;41.924;25.562;2023-04-16T01:34:17;99042.16;;;13.90;55.61
54900;BME280;40801;41.924;25.562;2023-04-16T01:36:42;99038.66;;;13.89;55.85
54900;BME280;40801;41.924;25.562;2023-04-16T01:39:08;99033.56;;;13.88;55.88
54900;BME280;40801;41.924;25.562;2023-04-16T01:41:40;99037.63;;;13.94;55.41
54900;BME280;40801;41.924;25.562;2023-04-16T01:44:05;99041.94;;;13.95;55.44
54900;BME280;40801;41.924;25.562;2023-04-16T01:46:32;99040.34;;;13.94;55.59
54900;BME280;40801;41.924;25.562;2023-04-16T01:48:58;99039.78;;;13.88;56.33
54900;BME280;40801;41.924;25.562;2023-04-16T01:51:23;99042.34;;;13.85;56.59
54900;BME280;40801;41.924;25.562;2023-04-16T01:53:49;99043.47;;;13.84;56.96
54900;BME280;40801;41.924;25.562;2023-04-16T01:56:15;99041.31;;;13.77;57.02
54900;BME280;40801;41.924;25.562;2023-04-16T01:58:40;99045.34;;;13.71;57.41
54900;BME280;40801;41.924;25.562;2023-04-16T02:01:07;99039.22;;;13.62;57.96
54900;BME280;40801;41.924;25.562;2023-04-16T02:03:33;99042.31;;;13.52;58.27
54900;BME280;40801;41.924;25.562;2023-04-16T02:05:58;99038.81;;;13.51;58.30
54900;BME280;40801;41.924;25.562;2023-04-16T02:08:25;99039.81;;;13.47;58.83
54900;BME280;40801;41.924;25.562;2023-04-16T02:10:50;99040.16;;;13.45;58.84
54900;BME280;40801;41.924;25.562;2023-04-16T02:13:16;99039.69;;;13.43;58.93
54900;BME280;40801;41.924;25.562;2023-04-16T02:15:46;99037.13;;;13.47;59.27
54900;BME280;40801;41.924;25.562;2023-04-16T02:18:12;99033.38;;;13.39;59.40
54900;BME280;40801;41.924;25.562;2023-04-16T02:20:42;99036.41;;;13.38;59.98
54900;BME280;40801;41.924;25.562;2023-04-16T02:23:08;99027.94;;;13.39;59.25
54900;BME280;40801;41.924;25.562;2023-04-16T02:25:41;99038.78;;;13.39;59.84
54900;BME280;40801;41.924;25.562;2023-04-16T02:28:08;99035.63;;;13.37;60.03
54900;BME280;40801;41.924;25.562;2023-04-16T02:30:38;99030.66;;;13.39;60.97
54900;BME280;40801;41.924;25.562;2023-04-16T02:33:03;99025.00;;;13.32;62.00
54900;BME280;40801;41.924;25.562;2023-04-16T02:35:33;99033.25;;;13.36;60.91
54900;BME280;40801;41.924;25.562;2023-04-16T02:37:59;99028.94;;;13.35;62.68
54900;BME280;40801;41.924;25.562;2023-04-16T02:40:25;99026.03;;;13.40;60.61
54900;BME280;40801;41.924;25.562;2023-04-16T02:42:52;99018.81;;;13.44;60.29
54900;BME280;40801;41.924;25.562;2023-04-16T02:45:18;99021.53;;;13.44;60.82
54900;BME280;40801;41.924;25.562;2023-04-16T02:47:43;99014.66;;;13.46;60.83
54900;BME280;40801;41.924;25.562;2023-04-16T02:50:09;99022.69;;;13.55;60.27
54900;BME280;40801;41.924;25.562;2023-04-16T02:52:34;99016.03;;;13.52;60.74
54900;BME280;40801;41.924;25.562;2023-04-16T02:55:00;99021.13;;;13.54;60.71
54900;BME280;40801;41.924;25.562;2023-04-16T02:57:26;99019.06;;;13.51;61.26
54900;BME280;40801;41.924;25.562;2023-04-16T02:59:51;99018.41;;;13.54;60.91
54900;BME280;40801;41.924;25.562;2023-04-16T03:02:16;99020.53;;;13.48;61.37
54900;BME280;40801;41.924;25.562;2023-04-16T03:04:42;99028.78;;;13.52;61.32
54900;BME280;40801;41.924;25.562;2023-04-16T03:07:07;99032.41;;;13.56;61.09
54900;BME280;40801;41.924;25.562;2023-04-16T03:09:34;99029.56;;;13.52;61.59
54900;BME280;40801;41.924;25.562;2023-04-16T03:11:59;99030.56;;;13.48;61.89
54900;BME280;40801;41.924;25.562;2023-04-16T03:14:26;99039.50;;;13.48;61.53
54900;BME280;40801;41.924;25.562;2023-04-16T03:16:51;99039.50;;;13.48;61.62
54900;BME280;40801;41.924;25.562;2023-04-16T03:19:17;99043.53;;;13.42;62.22
54900;BME280;40801;41.924;25.562;2023-04-16T03:21:43;99046.50;;;13.49;62.03
54900;BME280;40801;41.924;25.562;2023-04-16T03:24:08;99043.91;;;13.53;62.19
54900;BME280;40801;41.924;25.562;2023-04-16T03:26:33;99043.25;;;13.56;62.32
54900;BME280;40801;41.924;25.562;2023-04-16T03:28:59;99051.84;;;13.58;62.40
54900;BME280;40801;41.924;25.562;2023-04-16T03:31:26;99048.47;;;13.61;62.51
54900;BME280;40801;41.924;25.562;2023-04-16T03:33:51;99056.41;;;13.66;62.46
54900;BME280;40801;41.924;25.562;2023-04-16T03:36:17;99053.16;;;13.73;61.96
54900;BME280;40801;41.924;25.562;2023-04-16T03:38:42;99056.19;;;13.71;62.29
54900;BME280;40801;41.924;25.562;2023-04-16T03:41:07;99059.25;;;13.70;63.04
54900;BME280;40801;41.924;25.562;2023-04-16T03:43:33;99058.22;;;13.74;62.55
54900;BME280;40801;41.924;25.562;2023-04-16T03:45:58;99063.44;;;13.79;62.41
54900;BME280;40801;41.924;25.562;2023-04-16T03:48:24;99063.31;;;13.76;62.70
54900;BME280;40801;41.924;25.562;2023-04-16T03:50:49;99067.53;;;13.85;62.13
54900;BME280;40801;41.924;25.562;2023-04-16T03:53:15;99068.47;;;13.89;62.22
54900;BME280;40801;41.924;25.562;2023-04-16T03:55:41;99072.53;;;13.95;62.12
54900;BME280;40801;41.924;25.562;2023-04-16T03:58:06;99067.56;;;13.98;62.19
54900;BME280;40801;41.924;25.562;2023-04-16T04:00:32;99061.81;;;13.99;61.90
54900;BME280;40801;41.924;25.562;2023-04-16T04:02:57;99063.75;;;13.99;62.58
54900;BME280;40801;41.924;25.562;2023-04-16T04:05:23;99064.97;;;14.01;62.43
54900;BME280;40801;41.924;25.562;2023-04-16T04:07:48;99054.38;;;14.08;62.16
54900;BME280;40801;41.924;25.562;2023-04-16T04:10:14;99062.75;;;14.15;61.81
54900;BME280;40801;41.924;25.562;2023-04-16T04:12:40;99069.75;;;14.16;61.70
54900;BME280;40801;41.924;25.562;2023-04-16T04:15:06;99062.91;;;14.19;61.42
54900;BME280;40801;41.924;25.562;2023-04-16T04:17:31;99076.00;;;14.17;62.23
54900;BME280;40801;41.924;25.562;2023-04-16T04:19:57;99076.00;;;14.17;62.19
54900;BME280;40801;41.924;25.562;2023-04-16T04:22:22;99080.28;;;14.18;62.52
54900;BME280;40801;41.924;25.562;2023-04-16T04:24:47;99083.78;;;14.18;62.77
54900;BME280;40801;41.924;25.562;2023-04-16T04:27:13;99091.13;;;14.18;62.51
54900;BME280;40801;41.924;25.562;2023-04-16T04:29:38;99095.88;;;14.21;62.15
54900;BME280;40801;41.924;25.562;2023-04-16T04:32:04;99095.34;;;14.27;61.57
54900;BME280;40801;41.924;25.562;2023-04-16T04:34:29;99096.91;;;14.29;61.76
54900;BME280;40801;41.924;25.562;2023-04-16T04:36:54;99102.91;;;14.22;61.65
54900;BME280;40801;41.924;25.562;2023-04-16T04:39:20;99112.72;;;14.26;62.08
54900;BME280;40801;41.924;25.562;2023-04-16T04:41:46;99112.88;;;14.42;61.52
54900;BME280;40801;41.924;25.562;2023-04-16T04:44:12;99124.22;;;14.44;61.08
54900;BME280;40801;41.924;25.562;2023-04-16T04:46:38;99113.03;;;14.46;60.65
54900;BME280;40801;41.924;25.562;2023-04-16T04:49:04;99121.34;;;14.41;61.12
54900;BME280;40801;41.924;25.562;2023-04-16T04:51:30;99128.00;;;14.31;61.69
54900;BME280;40801;41.924;25.562;2023-04-16T04:53:55;99128.47;;;14.33;61.32
54900;BME280;40801;41.924;25.562;2023-04-16T04:56:21;99133.88;;;14.33;60.59
54900;BME280;40801;41.924;25.562;2023-04-16T04:58:49;99135.34;;;14.31;60.20
54900;BME280;40801;41.924;25.562;2023-04-16T05:01:14;99138.09;;;14.10;61.07
54900;BME280;40801;41.924;25.562;2023-04-16T05:03:40;99124.75;;;14.05;61.63
54900;BME280;40801;41.924;25.562;2023-04-16T05:06:06;99128.38;;;14.09;60.93
54900;BME280;40801;41.924;25.562;2023-04-16T05:08:31;99127.00;;;14.03;60.73
54900;BME280;40801;41.924;25.562;2023-04-16T05:10:57;99129.81;;;13.94;61.84
54900;BME280;40801;41.924;25.562;2023-04-16T05:13:22;99124.97;;;14.00;61.50
54900;BME280;40801;41.924;25.562;2023-04-16T05:15:48;99128.34;;;13.97;62.10
54900;BME280;40801;41.924;25.562;2023-04-16T05:18:13;99125.97;;;13.95;62.57
54900;BME280;40801;41.924;25.562;2023-04-16T05:20:38;99123.84;;;14.01;61.77
54900;BME280;40801;41.924;25.562;2023-04-16T05:23:04;99128.25;;;14.05;61.86
54900;BME280;40801;41.924;25.562;2023-04-16T05:25:30;99123.06;;;14.12;61.42
54900;BME280;40801;41.924;25.562;2023-04-16T05:27:55;99113.47;;;14.15;62.12
54900;BME280;40801;41.924;25.562;2023-04-16T05:30:21;99120.19;;;14.17;63.19
54900;BME280;40801;41.924;25.562;2023-04-16T05:32:46;99115.66;;;14.21;63.65
54900;BME280;40801;41.924;25.562;2023-04-16T05:35:12;99124.41;;;14.39;63.51
54900;BME280;40801;41.924;25.562;2023-04-16T05:37:37;99114.66;;;14.38;64.05
54900;BME280;40801;41.924;25.562;2023-04-16T05:40:03;99122.47;;;14.40;63.91
54900;BME280;40801;41.924;25.562;2023-04-16T05:42:28;99122.88;;;14.50;63.12
54900;BME280;40801;41.924;25.562;2023-04-16T05:44:54;99124.69;;;14.59;62.88
54900;BME280;40801;41.924;25.562;2023-04-16T05:47:19;99124.81;;;14.62;63.82
54900;BME280;40801;41.924;25.562;2023-04-16T05:49:45;99116.56;;;14.71;64.20
54900;BME280;40801;41.924;25.562;2023-04-16T05:52:10;99113.66;;;14.76;63.99
54900;BME280;40801;41.924;25.562;2023-04-16T05:54:36;99115.91;;;14.86;63.37
54900;BME280;40801;41.924;25.562;2023-04-16T05:57:02;99113.28;;;15.02;62.80
54900;BME280;40801;41.924;25.562;2023-04-16T05:59:27;99104.78;;;15.15;62.81
54900;BME280;40801;41.924;25.562;2023-04-16T06:01:54;99107.13;;;15.41;62.16
54900;BME280;40801;41.924;25.562;2023-04-16T06:04:20;99107.97;;;15.58;62.67
54900;BME280;40801;41.924;25.562;2023-04-16T06:06:45;99103.38;;;15.86;62.30
54900;BME280;40801;41.924;25.562;2023-04-16T06:09:10;99110.72;;;16.14;61.88
54900;BME280;40801;41.924;25.562;2023-04-16T06:11:36;99108.75;;;16.26;61.26
54900;BME280;40801;41.924;25.562;2023-04-16T06:14:01;99109.03;;;16.37;61.18
54900;BME280;40801;41.924;25.562;2023-04-16T06:16:27;99108.25;;;16.52;61.20
54900;BME280;40801;41.924;25.562;2023-04-16T06:18:52;99113.28;;;16.66;60.67
54900;BME280;40801;41.924;25.562;2023-04-16T06:21:18;99109.22;;;16.76;60.87
54900;BME280;40801;41.924;25.562;2023-04-16T06:23:43;99114.69;;;16.91;62.02
54900;BME280;40801;41.924;25.562;2023-04-16T06:26:09;99111.31;;;16.98;62.84
54900;BME280;40801;41.924;25.562;2023-04-16T06:28:35;99106.94;;;17.09;63.33
54900;BME280;40801;41.924;25.562;2023-04-16T06:31:00;99105.31;;;17.24;63.23
54900;BME280;40801;41.924;25.562;2023-04-16T06:33:26;99122.13;;;17.45;62.46
54900;BME280;40801;41.924;25.562;2023-04-16T06:35:51;99118.19;;;17.43;62.18
54900;BME280;40801;41.924;25.562;2023-04-16T06:38:17;99110.09;;;17.46;62.13
54900;BME280;40801;41.924;25.562;2023-04-16T06:40:43;99111.09;;;17.57;62.39
54900;BME280;40801;41.924;25.562;2023-04-16T06:43:08;99105.69;;;17.77;62.18
54900;BME280;40801;41.924;25.562;2023-04-16T06:45:33;99116.59;;;17.77;62.14
54900;BME280;40801;41.924;25.562;2023-04-16T06:47:59;99112.91;;;17.88;61.67
54900;BME280;40801;41.924;25.562;2023-04-16T06:50:26;99108.97;;;17.86;61.67
54900;BME280;40801;41.924;25.562;2023-04-16T06:52:53;99110.00;;;17.78;61.54
54900;BME280;40801;41.924;25.562;2023-04-16T06:55:18;99116.59;;;17.77;61.32
54900;BME280;40801;41.924;25.562;2023-04-16T06:57:43;99116.47;;;17.70;61.61
54900;BME280;40801;41.924;25.562;2023-04-16T07:00:09;99111.69;;;17.67;61.60
54900;BME280;40801;41.924;25.562;2023-04-16T07:02:35;99129.09;;;17.62;61.89
54900;BME280;40801;41.924;25.562;2023-04-16T07:05:01;99129.38;;;17.57;62.50
54900;BME280;40801;41.924;25.562;2023-04-16T07:07:26;99128.06;;;17.67;62.67
54900;BME280;40801;41.924;25.562;2023-04-16T07:09:52;99130.59;;;17.75;62.65
54900;BME280;40801;41.924;25.562;2023-04-16T07:12:18;99132.53;;;17.94;62.12
54900;BME280;40801;41.924;25.562;2023-04-16T07:14:44;99126.75;;;18.18;61.26
54900;BME280;40801;41.924;25.562;2023-04-16T07:17:09;99124.63;;;18.73;61.71
54900;BME280;40801;41.924;25.562;2023-04-16T07:19:35;99120.63;;;19.43;60.27
54900;BME280;40801;41.924;25.562;2023-04-16T07:22:01;99122.34;;;20.18;59.19
54900;BME280;40801;41.924;25.562;2023-04-16T07:24:26;99112.44;;;20.84;56.75
54900;BME280;40801;41.924;25.562;2023-04-16T07:26:52;99121.22;;;21.08;55.42
54900;BME280;40801;41.924;25.562;2023-04-16T07:29:17;99119.16;;;21.49;53.87
54900;BME280;40801;41.924;25.562;2023-04-16T07:31:43;99114.91;;;21.58;54.14
54900;BME280;40801;41.924;25.562;2023-04-16T07:34:09;99113.06;;;21.94;53.74
54900;BME280;40801;41.924;25.562;2023-04-16T07:36:34;99112.09;;;22.60;51.77
54900;BME280;40801;41.924;25.562;2023-04-16T07:39:00;99105.38;;;22.50;50.92
54900;BME280;40801;41.924;25.562;2023-04-16T07:41:26;99105.38;;;22.53;50.56
54900;BME280;40801;41.924;25.562;2023-04-16T07:43:51;99099.50;;;22.51;50.62
54900;BME280;40801;41.924;25.562;2023-04-16T07:46:17;99091.22;;;22.19;51.97
54900;BME280;40801;41.924;25.562;2023-04-16T07:48:42;99094.00;;;22.48;51.89
54900;BME280;40801;41.924;25.562;2023-04-16T07:51:08;99078.69;;;23.07;50.60
54900;BME280;40801;41.924;25.562;2023-04-16T07:53:33;99075.09;;;23.42;50.43
54900;BME280;40801;41.924;25.562;2023-04-16T07:55:58;99081.66;;;23.70;48.89
54900;BME280;40801;41.924;25.562;2023-04-16T07:58:24;99091.50;;;23.78;48.50
54900;BME280;40801;41.924;25.562;2023-04-16T08:00:50;99087.91;;;23.88;47.95
54900;BME280;40801;41.924;25.562;2023-04-16T08:03:15;99086.25;;;24.05;47.02
54900;BME280;40801;41.924;25.562;2023-04-16T08:05:42;99090.06;;;24.22;46.09
54900;BME280;40801;41.924;25.562;2023-04-16T08:08:07;99096.81;;;24.14;46.05
54900;BME280;40801;41.924;25.562;2023-04-16T08:10:33;99082.81;;;23.83;46.15
54900;BME280;40801;41.924;25.562;2023-04-16T08:13:01;99086.31;;;23.87;45.71
54900;BME280;40801;41.924;25.562;2023-04-16T08:15:26;99083.66;;;23.66;46.34
54900;BME280;40801;41.924;25.562;2023-04-16T08:17:52;99082.16;;;23.33;46.57
54900;BME280;40801;41.924;25.562;2023-04-16T08:20:17;99088.91;;;23.10;46.76
54900;BME280;40801;41.924;25.562;2023-04-16T08:22:44;99075.56;;;22.66;47.53
54900;BME280;40801;41.924;25.562;2023-04-16T08:25:10;99082.22;;;22.37;47.58
54900;BME280;40801;41.924;25.562;2023-04-16T08:27:36;99077.91;;;22.39;47.79
54900;BME280;40801;41.924;25.562;2023-04-16T08:30:01;99074.75;;;22.41;47.58
54900;BME280;40801;41.924;25.562;2023-04-16T08:32:27;99072.03;;;22.30;47.58
54900;BME280;40801;41.924;25.562;2023-04-16T08:34:52;99077.06;;;22.10;47.43
54900;BME280;40801;41.924;25.562;2023-04-16T08:37:18;99069.94;;;21.95;47.91
54900;BME280;40801;41.924;25.562;2023-04-16T08:39:43;99068.81;;;22.03;47.67
54900;BME280;40801;41.924;25.562;2023-04-16T08:42:17;99068.34;;;21.83;47.77
54900;BME280;40801;41.924;25.562;2023-04-16T08:44:47;99066.69;;;21.64;48.76
54900;BME280;40801;41.924;25.562;2023-04-16T08:47:14;99071.00;;;21.65;48.60
54900;BME280;40801;41.924;25.562;2023-04-16T08:49:44;99063.16;;;21.60;48.71
54900;BME280;40801;41.924;25.562;2023-04-16T08:52:15;99070.59;;;21.60;48.70
54900;BME280;40801;41.924;25.562;2023-04-16T08:55:01;99062.38;;;21.60;49.23
54900;BME280;40801;41.924;25.562;2023-04-16T08:57:32;99054.59;;;21.69;47.92
54900;BME280;40801;41.924;25.562;2023-04-16T09:00:01;99060.78;;;21.55;47.78
54900;BME280;40801;41.924;25.562;2023-04-16T09:02:27;99063.56;;;21.62;47.17
54900;BME280;40801;41.924;25.562;2023-04-16T09:04:52;99059.59;;;21.49;47.17
54900;BME280;40801;41.924;25.562;2023-04-16T09:07:20;99058.31;;;21.32;47.02
54900;BME280;40801;41.924;25.562;2023-04-16T09:09:47;99051.97;;;21.18;47.74
54900;BME280;40801;41.924;25.562;2023-04-16T09:12:14;99055.50;;;21.22;48.32
54900;BME280;40801;41.924;25.562;2023-04-16T09:14:40;99050.16;;;21.40;47.96
54900;BME280;40801;41.924;25.562;2023-04-16T09:17:07;99046.59;;;21.36;48.32
54900;BME280;40801;41.924;25.562;2023-04-16T09:19:33;99050.56;;;21.45;48.11
54900;BME280;40801;41.924;25.562;2023-04-16T09:21:59;99047.06;;;21.48;47.40
54900;BME280;40801;41.924;25.562;2023-04-16T09:24:25;99043.91;;;21.50;47.53
54900;BME280;40801;41.924;25.562;2023-04-16T09:26:51;99051.00;;;21.54;47.24
54900;BME280;40801;41.924;25.562;2023-04-16T09:29:35;99044.31;;;21.48;46.72
54900;BME280;40801;41.924;25.562;2023-04-16T09:32:02;99044.31;;;21.55;47.09
54900;BME280;40801;41.924;25.562;2023-04-16T09:34:28;99042.03;;;21.72;46.93
54900;BME280;40801;41.924;25.562;2023-04-16T09:36:54;99038.13;;;21.73;46.96
54900;BME280;40801;41.924;25.562;2023-04-16T09:39:21;99036.53;;;21.68;46.90
54900;BME280;40801;41.924;25.562;2023-04-16T09:41:47;99040.50;;;21.81;47.60
54900;BME280;40801;41.924;25.562;2023-04-16T09:44:12;99035.06;;;21.99;48.44
54900;BME280;40801;41.924;25.562;2023-04-16T09:46:41;99034.31;;;22.13;49.22
54900;BME280;40801;41.924;25.562;2023-04-16T09:49:14;99038.25;;;22.26;50.51
54900;BME280;40801;41.924;25.562;2023-04-16T09:51:41;99033.53;;;22.48;50.51
54900;BME280;40801;41.924;25.562;2023-04-16T09:54:07;99029.47;;;23.38;49.23
54900;BME280;40801;41.924;25.562;2023-04-16T09:56:33;99028.56;;;24.39;47.38
54900;BME280;40801;41.924;25.562;2023-04-16T09:59:03;99023.91;;;25.15;45.40
54900;BME280;40801;41.924;25.562;2023-04-16T10:01:29;99022.41;;;25.78;43.36
54900;BME280;40801;41.924;25.562;2023-04-16T10:03:55;99025.78;;;26.43;41.08
54900;BME280;40801;41.924;25.562;2023-04-16T10:06:22;99020.78;;;26.58;37.28
54900;BME280;40801;41.924;25.562;2023-04-16T10:08:51;99025.44;;;25.53;37.54
54900;BME280;40801;41.924;25.562;2023-04-16T10:11:18;99015.28;;;25.47;38.27
54900;BME280;40801;41.924;25.562;2023-04-16T10:13:44;99024.34;;;25.13;38.67
54900;BME280;40801;41.924;25.562;2023-04-16T10:16:10;99021.25;;;25.08;40.19
54900;BME280;40801;41.924;25.562;2023-04-16T10:18:43;99015.41;;;24.61;41.94
54900;BME280;40801;41.924;25.562;2023-04-16T10:21:08;99018.91;;;24.09;43.06
54900;BME280;40801;41.924;25.562;2023-04-16T10:23:40;99023.88;;;23.66;44.54
54900;BME280;40801;41.924;25.562;2023-04-16T10:26:06;99033.09;;;23.10;46.18
54900;BME280;40801;41.924;25.562;2023-04-16T10:28:31;99031.97;;;22.82;46.45
54900;BME280;40801;41.924;25.562;2023-04-16T10:31:01;99029.63;;;22.63;47.78
54900;BME280;40801;41.924;25.562;2023-04-16T10:33:30;99026.09;;;22.55;48.41
54900;BME280;40801;41.924;25.562;2023-04-16T10:36:17;99032.00;;;22.29;49.31
54900;BME280;40801;41.924;25.562;2023-04-16T10:38:49;99029.91;;;21.80;50.59
54900;BME280;40801;41.924;25.562;2023-04-16T10:41:15;99028.72;;;21.70;50.77
54900;BME280;40801;41.924;25.562;2023-04-16T10:43:50;99020.88;;;21.72;50.53
54900;BME280;40801;41.924;25.562;2023-04-16T10:46:32;99021.97;;;21.53;49.21
54900;BME280;40801;41.924;25.562;2023-04-16T10:49:02;99008.44;;;22.42;48.31
54900;BME280;40801;41.924;25.562;2023-04-16T10:51:36;98998.28;;;23.76;46.43
54900;BME280;40801;41.924;25.562;2023-04-16T10:56:34;99002.88;;;25.28;40.70
54900;BME280;40801;41.924;25.562;2023-04-16T10:59:00;99003.91;;;25.75;40.29
54900;BME280;40801;41.924;25.562;2023-04-16T11:01:42;99011.91;;;26.20;39.09
54900;BME280;40801;41.924;25.562;2023-04-16T11:04:36;99014.16;;;27.38;36.18
54900;BME280;40801;41.924;25.562;2023-04-16T11:09:59;99012.50;;;26.08;37.11
54900;BME280;40801;41.924;25.562;2023-04-16T11:12:46;99009.00;;;26.77;35.30
54900;BME280;40801;41.924;25.562;2023-04-16T11:15:12;99005.38;;;27.63;36.43
54900;BME280;40801;41.924;25.562;2023-04-16T11:17:39;98996.97;;;28.68;34.56
54900;BME280;40801;41.924;25.562;2023-04-16T11:20:17;98996.03;;;29.33;32.20
54900;BME280;40801;41.924;25.562;2023-04-16T11:22:42;98998.44;;;29.59;32.64
54900;BME280;40801;41.924;25.562;2023-04-16T11:25:10;99001.88;;;29.76;32.26
54900;BME280;40801;41.924;25.562;2023-04-16T11:27:35;98994.19;;;29.13;32.56
54900;BME280;40801;41.924;25.562;2023-04-16T11:30:07;98976.66;;;28.87;32.89
54900;BME280;40801;41.924;25.562;2023-04-16T11:32:37;98972.56;;;28.47;33.80
54900;BME280;40801;41.924;25.562;2023-04-16T11:35:11;98968.66;;;28.12;34.20
54900;BME280;40801;41.924;25.562;2023-04-16T11:37:37;98978.94;;;27.39;34.99
54900;BME280;40801;41.924;25.562;2023-04-16T11:40:06;98969.53;;;26.27;36.78
54900;BME280;40801;41.924;25.562;2023-04-16T11:42:35;98976.94;;;26.10;37.42
54900;BME280;40801;41.924;25.562;2023-04-16T11:45:08;98965.72;;;25.67;38.26
54900;BME280;40801;41.924;25.562;2023-04-16T11:47:48;98978.72;;;25.36;39.32
54900;BME280;40801;41.924;25.562;2023-04-16T11:50:26;98974.16;;;24.88;39.82
54900;BME280;40801;41.924;25.562;2023-04-16T11:52:54;98973.97;;;24.68;40.14
54900;BME280;40801;41.924;25.562;2023-04-16T11:55:20;98970.59;;;23.94;41.58
54900;BME280;40801;41.924;25.562;2023-04-16T11:57:46;98963.25;;;23.77;41.98
54900;BME280;40801;41.924;25.562;2023-04-16T12:00:12;98974.47;;;23.31;43.23
54900;BME280;40801;41.924;25.562;2023-04-16T12:02:48;98963.81;;;23.40;43.17
54900;BME280;40801;41.924;25.562;2023-04-16T12:05:35;98961.66;;;22.96;43.24
54900;BME280;40801;41.924;25.562;2023-04-16T12:08:07;98957.31;;;22.98;43.37
54900;BME280;40801;41.924;25.562;2023-04-16T12:10:35;98948.59;;;23.17;43.94
54900;BME280;40801;41.924;25.562;2023-04-16T12:13:12;98956.19;;;22.85;44.88
54900;BME280;40801;41.924;25.562;2023-04-16T12:15:51;98949.13;;;22.70;44.28
54900;BME280;40801;41.924;25.562;2023-04-16T12:18:18;98941.25;;;22.82;44.17
54900;BME280;40801;41.924;25.562;2023-04-16T12:20:45;98941.16;;;23.07;44.41
54900;BME280;40801;41.924;25.562;2023-04-16T12:23:32;98923.81;;;23.25;45.89
54900;BME280;40801;41.924;25.562;2023-04-16T12:25:57;98920.03;;;23.67;44.58
54900;BME280;40801;41.924;25.562;2023-04-16T12:28:33;98912.06;;;23.83;44.42
54900;BME280;40801;41.924;25.562;2023-04-16T12:31:01;98907.38;;;24.32;43.53
54900;BME280;40801;41.924;25.562;2023-04-16T12:33:27;98895.75;;;24.85;42.66
54900;BME280;40801;41.924;25.562;2023-04-16T12:35:52;98892.81;;;25.60;41.58
54900;BME280;40801;41.924;25.562;2023-04-16T12:38:19;98892.81;;;26.11;39.92
54900;BME280;40801;41.924;25.562;2023-04-16T12:40:45;98882.28;;;26.25;38.85
54900;BME280;40801;41.924;25.562;2023-04-16T12:43:10;98869.41;;;26.62;38.85
54900;BME280;40801;41.924;25.562;2023-04-16T12:45:37;98875.91;;;27.11;37.18
54900;BME280;40801;41.924;25.562;2023-04-16T12:48:02;98871.19;;;27.81;36.27
54900;BME280;40801;41.924;25.562;2023-04-16T12:50:28;98872.25;;;28.48;33.77
54900;BME280;40801;41.924;25.562;2023-04-16T12:52:57;98870.59;;;28.51;33.20
54900;BME280;40801;41.924;25.562;2023-04-16T12:55:22;98871.19;;;27.28;34.00